createdAt,value
2018-03-02T00:02:02.595Z,42.12
2018-03-02T00:04:30.434Z,42.41
2018-03-02T00:06:58.106Z,42.17
2018-03-02T00:09:25.665Z,42.47
2018-03-02T00:11:53.191Z,42.81
2018-03-02T00:14:20.746Z,42.52
2018-03-02T00:16:51.302Z,42.66
2018-03-02T00:19:19.152Z,42.67
2018-03-02T00:21:46.675Z,42.97
2018-03-02T00:24:14.200Z,43.17
2018-03-02T00:26:41.746Z,42.31
2018-03-02T00:29:09.274Z,42.60
2018-03-02T00:31:36.984Z,42.73
2018-03-02T00:34:04.527Z,42.68
2018-03-02T00:36:32.043Z,42.48
2018-03-02T00:38:59.593Z,42.37
2018-03-02T00:41:27.113Z,42.21
2018-03-02T00:43:54.841Z,42.92
2018-03-02T00:46:22.359Z,42.25
2018-03-02T00:48:49.882Z,42.96
2018-03-02T00:51:17.425Z,43.19
2018-03-02T00:53:44.947Z,42.37
2018-03-02T00:56:12.514Z,42.60
2018-03-02T00:58:40.031Z,42.89
2018-03-02T01:01:07.554Z,42.18
2018-03-02T01:03:35.108Z,42.19
2018-03-02T01:06:02.626Z,42.62
2018-03-02T01:08:30.610Z,42.39
2018-03-02T01:10:58.129Z,42.02
2018-03-02T01:13:25.826Z,42.11
2018-03-02T01:15:53.374Z,42.37
2018-03-02T01:18:20.891Z,42.53
2018-03-02T01:20:48.747Z,42.62
2018-03-02T01:23:16.258Z,42.75
2018-03-02T01:25:43.773Z,43.28
2018-03-02T01:28:11.321Z,42.62
2018-03-02T01:30:38.849Z,42.53
2018-03-02T01:33:06.754Z,43.31
2018-03-02T01:35:34.275Z,43.20
2018-03-02T01:38:01.803Z,43.36
2018-03-02T01:40:29.362Z,43.21
2018-03-02T01:42:56.927Z,43.18
2018-03-02T01:45:24.653Z,42.93
2018-03-02T01:47:52.169Z,43.28
2018-03-02T01:50:19.708Z,43.51
2018-03-02T01:52:47.257Z,44.17
2018-03-02T01:55:14.826Z,43.89
2018-03-02T01:57:42.463Z,43.68
2018-03-02T02:00:09.976Z,43.36
2018-03-02T02:02:37.522Z,43.54
2018-03-02T02:05:05.092Z,43.96
2018-03-02T02:07:32.627Z,43.71
2018-03-02T02:10:00.187Z,43.46
2018-03-02T02:12:28.039Z,44.38
2018-03-02T02:14:55.561Z,44.29
2018-03-02T02:17:23.109Z,44.21
2018-03-02T02:19:50.625Z,44.01
2018-03-02T02:22:18.489Z,43.96
2018-03-02T02:24:46.002Z,43.31
2018-03-02T02:27:13.802Z,43.91
2018-03-02T02:29:41.771Z,44.28
2018-03-02T02:32:10.154Z,43.87
2018-03-02T02:34:37.722Z,44.34
2018-03-02T02:37:05.257Z,44.57
2018-03-02T02:39:32.776Z,44.32
2018-03-02T02:42:00.333Z,44.43
2018-03-02T02:44:27.860Z,44.63
2018-03-02T02:46:55.699Z,44.41
2018-03-02T02:49:23.220Z,44.43
2018-03-02T02:51:50.740Z,44.50
2018-03-02T02:54:18.284Z,44.77
2018-03-02T02:56:45.814Z,44.66
2018-03-02T02:59:13.405Z,44.65
2018-03-02T03:01:40.926Z,44.72
2018-03-02T03:04:08.454Z,44.83
2018-03-02T03:06:36.006Z,44.87
2018-03-02T03:09:03.537Z,45.46
2018-03-02T03:11:31.097Z,45.29
2018-03-02T03:13:58.622Z,45.62
2018-03-02T03:16:26.141Z,45.17
2018-03-02T03:18:53.974Z,45.08
2018-03-02T03:21:21.747Z,45.34
2018-03-02T03:23:49.296Z,45.95
2018-03-02T03:26:16.834Z,45.54
2018-03-02T03:28:44.361Z,45.70
2018-03-02T03:31:12.128Z,45.58
2018-03-02T03:33:39.658Z,45.37
2018-03-02T03:36:07.290Z,45.92
2018-03-02T03:38:34.818Z,45.92
2018-03-02T03:41:02.345Z,45.66
2018-03-02T03:43:29.896Z,45.46
2018-03-02T03:45:57.425Z,45.65
2018-03-02T03:48:25.174Z,45.79
2018-03-02T03:50:52.828Z,46.45
2018-03-02T03:53:20.351Z,46.14
2018-03-02T03:55:47.902Z,46.24
2018-03-02T03:58:15.424Z,45.63
2018-03-02T04:00:43.173Z,45.60
2018-03-02T04:03:10.705Z,45.71
2018-03-02T04:05:38.223Z,45.61
2018-03-02T04:08:05.770Z,45.82
2018-03-02T04:10:33.285Z,45.64
2018-03-02T04:13:01.193Z,46.83
2018-03-02T04:15:28.723Z,46.19
2018-03-02T04:17:56.254Z,46.14
2018-03-02T04:20:23.797Z,46.52
2018-03-02T04:22:51.319Z,45.78
2018-03-02T04:25:18.882Z,46.08
2018-03-02T04:27:46.397Z,46.30
2018-03-02T04:30:13.917Z,46.78
2018-03-02T04:32:41.474Z,47.14
2018-03-02T04:35:09.063Z,47.26
2018-03-02T04:37:36.632Z,46.88
2018-03-02T04:40:04.150Z,46.67
2018-03-02T04:42:31.670Z,46.82
2018-03-02T04:44:59.222Z,47.08
2018-03-02T04:47:26.746Z,47.27
2018-03-02T04:49:54.458Z,46.10
2018-03-02T04:52:21.978Z,46.59
2018-03-02T04:54:49.493Z,46.63
2018-03-02T04:57:17.050Z,46.07
2018-03-02T04:59:44.570Z,46.29
2018-03-02T05:02:12.249Z,46.92
2018-03-02T05:04:39.767Z,46.36
2018-03-02T05:07:07.339Z,46.11
2018-03-02T05:09:34.892Z,46.86
2018-03-02T05:12:02.407Z,47.51
2018-03-02T05:14:30.150Z,47.73
2018-03-02T05:16:57.664Z,48.11
2018-03-02T05:19:25.186Z,47.84
2018-03-02T05:21:52.849Z,48.13
2018-03-02T05:24:20.377Z,47.43
2018-03-02T05:26:47.938Z,47.57
2018-03-02T05:29:15.479Z,47.43
2018-03-02T05:31:43.002Z,47.60
2018-03-02T05:34:10.548Z,47.93
2018-03-02T05:36:38.307Z,48.01
2018-03-02T05:39:06.153Z,46.94
2018-03-02T05:41:33.671Z,47.96
2018-03-02T05:44:01.209Z,48.31
2018-03-02T05:46:28.762Z,46.75
2018-03-02T05:48:56.287Z,46.83
2018-03-02T05:51:23.991Z,47.49
2018-03-02T05:53:51.505Z,48.05
2018-03-02T05:56:19.025Z,48.25
2018-03-02T05:58:46.582Z,47.25
2018-03-02T06:01:14.102Z,47.05
2018-03-02T06:03:41.677Z,46.65
2018-03-02T06:06:09.201Z,47.15
2018-03-02T06:08:36.770Z,47.12
2018-03-02T06:11:04.322Z,47.17
2018-03-02T06:13:31.839Z,46.77
2018-03-02T06:15:59.650Z,47.04
2018-03-02T06:18:27.181Z,47.23
2018-03-02T06:20:54.703Z,47.10
2018-03-02T06:23:22.261Z,47.47
2018-03-02T06:25:49.790Z,47.52
2018-03-02T06:28:17.366Z,47.14
2018-03-02T06:30:44.881Z,46.51
2018-03-02T06:33:12.406Z,46.03
2018-03-02T06:35:39.954Z,46.71
2018-03-02T06:38:07.474Z,46.70
2018-03-02T06:40:35.036Z,46.70
2018-03-02T06:43:02.554Z,45.90
2018-03-02T06:45:30.131Z,46.70
2018-03-02T06:47:57.694Z,46.28
2018-03-02T06:50:25.214Z,46.59
2018-03-02T06:52:52.992Z,46.26
2018-03-02T06:55:20.510Z,46.24
2018-03-02T06:57:48.030Z,45.70
2018-03-02T07:00:15.593Z,45.99
2018-03-02T07:02:43.109Z,45.59
2018-03-02T07:05:11.030Z,46.21
2018-03-02T07:07:38.552Z,45.21
2018-03-02T07:10:06.072Z,45.73
2018-03-02T07:12:33.629Z,45.93
2018-03-02T07:15:01.146Z,45.17
2018-03-02T07:17:29.034Z,45.43
2018-03-02T07:19:56.553Z,45.98
2018-03-02T07:22:24.152Z,45.91
2018-03-02T07:24:51.696Z,45.95
2018-03-02T07:27:19.219Z,45.35
2018-03-02T07:29:46.933Z,45.68
2018-03-02T07:32:14.456Z,45.83
2018-03-02T07:34:41.990Z,45.92
2018-03-02T07:37:09.530Z,46.10
2018-03-02T07:39:37.050Z,45.69
2018-03-02T07:42:04.834Z,46.09
2018-03-02T07:44:32.353Z,46.34
2018-03-02T07:46:59.870Z,46.82
2018-03-02T07:49:27.742Z,46.94
2018-03-02T07:51:55.264Z,46.54
2018-03-02T07:54:23.133Z,45.53
2018-03-02T07:56:50.925Z,45.82
2018-03-02T07:59:18.447Z,46.21
2018-03-02T08:01:45.998Z,44.80
2018-03-02T08:04:13.519Z,44.41
2018-03-02T08:06:41.346Z,44.50
2018-03-02T08:09:08.897Z,44.67
2018-03-02T08:11:36.410Z,45.22
2018-03-02T08:14:03.965Z,44.43
2018-03-02T08:16:31.490Z,44.90
2018-03-02T08:18:59.265Z,44.30
2018-03-02T08:21:26.794Z,44.62
2018-03-02T08:23:54.305Z,44.20
2018-03-02T08:26:21.890Z,42.61
2018-03-02T08:28:49.410Z,42.87
2018-03-02T08:31:17.093Z,42.25
2018-03-02T08:33:44.622Z,41.68
2018-03-02T08:36:12.141Z,42.33
2018-03-02T08:38:39.682Z,41.63
2018-03-02T08:41:07.203Z,40.52
2018-03-02T08:43:34.772Z,40.32
2018-03-02T08:46:02.290Z,40.36
2018-03-02T08:48:29.814Z,40.25
2018-03-02T08:50:57.366Z,39.81
2018-03-02T08:53:24.887Z,39.93
2018-03-02T08:55:52.848Z,40.45
2018-03-02T08:58:20.380Z,40.26
2018-03-02T09:00:48.113Z,39.23
2018-03-02T09:03:15.662Z,39.96
2018-03-02T09:05:43.194Z,39.68
2018-03-02T09:08:10.915Z,39.58
2018-03-02T09:10:38.434Z,38.89
2018-03-02T09:13:05.958Z,39.38
2018-03-02T09:15:33.506Z,38.99
2018-03-02T09:18:01.026Z,39.43
2018-03-02T09:20:28.736Z,38.77
2018-03-02T09:22:56.254Z,38.25
2018-03-02T09:25:23.779Z,38.26
2018-03-02T09:27:51.371Z,38.03
2018-03-02T09:30:18.906Z,37.12
2018-03-02T09:32:46.630Z,37.17
2018-03-02T09:35:14.153Z,37.45
2018-03-02T09:37:41.677Z,36.43
2018-03-02T09:40:09.214Z,35.49
2018-03-02T09:42:36.747Z,33.48
2018-03-02T09:45:04.637Z,32.61
2018-03-02T09:47:32.154Z,31.91
2018-03-02T09:49:59.738Z,32.64
2018-03-02T09:52:27.295Z,32.02
2018-03-02T09:54:54.814Z,30.96
2018-03-02T09:57:22.674Z,31.24
2018-03-02T09:59:50.206Z,30.31
2018-03-02T10:02:17.726Z,26.00
2018-03-02T10:04:45.303Z,23.80
2018-03-02T10:07:13.816Z,25.48
2018-03-02T10:09:41.518Z,26.80
2018-03-02T10:12:09.140Z,28.16
2018-03-02T10:14:36.688Z,27.54
2018-03-02T10:17:04.238Z,26.96
2018-03-02T10:19:31.824Z,25.48
2018-03-02T10:21:59.684Z,24.73
2018-03-02T10:24:27.345Z,25.72
2018-03-02T10:26:54.874Z,25.94
2018-03-02T10:29:22.670Z,26.43
2018-03-02T10:31:50.187Z,27.09
2018-03-02T10:34:17.871Z,27.40
2018-03-02T10:36:45.528Z,26.99
2018-03-02T10:39:13.047Z,28.64
2018-03-02T10:41:40.598Z,28.05
2018-03-02T10:44:08.115Z,26.63
2018-03-02T10:46:35.673Z,27.75
2018-03-02T10:49:03.193Z,27.66
2018-03-02T10:51:30.714Z,26.30
2018-03-02T10:53:58.259Z,25.95
2018-03-02T10:56:25.774Z,25.98
2018-03-02T10:58:53.565Z,26.39
2018-03-02T11:01:26.003Z,26.29
2018-03-02T11:04:01.132Z,25.88
2018-03-02T11:06:28.652Z,26.01
2018-03-02T11:08:56.167Z,26.10
2018-03-02T11:11:23.716Z,26.32
2018-03-02T11:13:51.314Z,25.75
2018-03-02T11:16:19.277Z,23.86
2018-03-02T11:18:46.794Z,22.70
2018-03-02T11:21:14.301Z,21.66
2018-03-02T11:23:41.841Z,22.13
2018-03-02T11:26:09.370Z,21.80
2018-03-02T11:28:37.174Z,22.50
2018-03-02T11:31:04.695Z,23.10
2018-03-02T11:33:32.382Z,22.19
2018-03-02T11:35:59.951Z,21.39
2018-03-02T11:38:27.469Z,21.88
2018-03-02T11:40:55.373Z,22.32
2018-03-02T11:43:22.921Z,22.49
2018-03-02T11:45:50.438Z,23.25
2018-03-02T11:48:17.980Z,23.48
2018-03-02T11:50:45.506Z,23.67
2018-03-02T11:53:13.287Z,23.56
2018-03-02T11:55:41.189Z,23.20
2018-03-02T11:58:08.723Z,23.84
2018-03-02T12:00:36.287Z,23.81
2018-03-02T12:03:03.802Z,25.64
2018-03-02T12:05:31.486Z,24.43
2018-03-02T12:07:59.008Z,24.75
2018-03-02T12:10:26.523Z,25.01
2018-03-02T12:12:54.097Z,24.46
2018-03-02T12:15:21.617Z,24.81
2018-03-02T12:17:49.175Z,25.67
2018-03-02T12:20:16.705Z,26.10
2018-03-02T12:22:44.249Z,25.75
2018-03-02T12:25:11.801Z,25.06
2018-03-02T12:27:39.334Z,24.73
2018-03-02T12:30:07.193Z,25.82
2018-03-02T12:32:34.707Z,25.69
2018-03-02T12:35:02.306Z,26.29
2018-03-02T12:37:29.942Z,27.23
2018-03-02T12:39:57.639Z,26.65
2018-03-02T12:42:25.289Z,26.82
2018-03-02T12:44:52.818Z,26.41
2018-03-02T12:47:20.392Z,26.08
2018-03-02T12:49:48.092Z,27.08
2018-03-02T12:52:16.462Z,26.89
2018-03-02T12:54:44.115Z,27.64
2018-03-02T12:57:11.642Z,27.83
2018-03-02T12:59:39.206Z,28.06
2018-03-02T13:02:06.832Z,28.30
2018-03-02T13:04:34.568Z,28.54
2018-03-02T13:07:02.280Z,28.26
2018-03-02T13:09:29.946Z,29.31
2018-03-02T13:11:57.656Z,28.94
2018-03-02T13:14:25.245Z,29.48
2018-03-02T13:16:52.866Z,29.02
2018-03-02T13:19:20.641Z,29.93
2018-03-02T13:21:48.373Z,30.00
2018-03-02T13:24:16.194Z,30.93
2018-03-02T13:29:47.733Z,29.85
2018-03-02T13:32:15.811Z,30.27
2018-03-02T13:34:55.658Z,30.91
2018-03-02T13:37:23.321Z,31.53
2018-03-02T13:40:03.168Z,31.07
2018-03-02T13:42:31.136Z,31.24
2018-03-02T13:44:58.792Z,31.63
2018-03-02T13:47:36.482Z,31.72
2018-03-02T13:50:08.222Z,31.18
2018-03-02T13:52:36.081Z,31.01
2018-03-02T13:55:03.642Z,30.24
2018-03-02T13:57:43.155Z,30.45
2018-03-02T14:00:10.848Z,29.85
2018-03-02T14:02:50.422Z,29.98
2018-03-02T14:05:18.168Z,29.43
2018-03-02T14:07:46.052Z,28.40
2018-03-02T14:10:14.119Z,29.64
2018-03-02T14:12:41.885Z,29.53
2018-03-02T14:15:09.753Z,29.96
2018-03-02T14:17:37.546Z,29.98
2018-03-02T14:20:05.489Z,29.73
2018-03-02T14:22:33.353Z,29.35
2018-03-02T14:25:01.244Z,28.59
2018-03-02T14:27:30.110Z,28.80
2018-03-02T14:29:57.874Z,29.71
2018-03-02T14:32:25.738Z,29.90
2018-03-02T14:34:53.817Z,29.69
2018-03-02T14:37:21.676Z,29.95
2018-03-02T14:39:49.667Z,29.43
2018-03-02T14:42:17.614Z,29.22
2018-03-02T14:44:45.583Z,29.15
2018-03-02T14:47:13.450Z,29.78
2018-03-02T14:49:41.264Z,30.42
2018-03-02T14:52:10.080Z,30.39
2018-03-02T14:54:37.978Z,30.30
2018-03-02T14:57:05.836Z,29.94
2018-03-02T14:59:33.708Z,29.72
2018-03-02T15:02:01.572Z,30.08
2018-03-02T15:04:30.381Z,30.33
2018-03-02T15:06:58.406Z,30.15
2018-03-02T15:09:26.501Z,30.20
2018-03-02T15:11:54.468Z,30.44
2018-03-02T15:14:22.269Z,30.44
2018-03-02T15:16:51.123Z,30.61
2018-03-02T15:19:18.990Z,30.83
2018-03-02T15:21:47.061Z,30.52
2018-03-02T15:24:14.996Z,29.96
2018-03-02T15:26:42.796Z,30.47
2018-03-02T15:29:10.867Z,30.16
2018-03-02T15:31:38.630Z,30.44
2018-03-02T15:34:06.606Z,30.47
2018-03-02T15:36:34.260Z,30.61
2018-03-02T15:39:02.919Z,31.13
2018-03-02T15:41:31.662Z,31.75
2018-03-02T15:43:59.395Z,32.16
2018-03-02T15:46:27.261Z,32.32
2018-03-02T15:48:55.538Z,32.25
2018-03-02T15:51:23.404Z,32.54
2018-03-02T15:53:51.168Z,31.76
2018-03-02T15:56:18.928Z,32.79
2018-03-02T15:58:46.838Z,33.10
2018-03-02T16:01:14.665Z,32.65
2018-03-02T16:03:42.430Z,33.22
2018-03-02T16:06:10.808Z,34.03
2018-03-02T16:08:38.776Z,33.81
2018-03-02T16:11:06.642Z,33.93
2018-03-02T16:13:34.876Z,34.31
2018-03-02T16:16:02.785Z,34.47
2018-03-02T16:18:31.896Z,34.91
2018-03-02T16:21:00.568Z,35.29
2018-03-02T16:23:28.611Z,34.79
2018-03-02T16:25:56.504Z,35.24
2018-03-02T16:28:24.477Z,35.84
2018-03-02T16:30:52.338Z,36.01
2018-03-02T16:33:20.998Z,36.12
2018-03-02T16:35:48.788Z,36.51
2018-03-02T16:38:16.855Z,36.64
2018-03-02T16:40:44.628Z,37.29
2018-03-02T16:43:12.389Z,37.10
2018-03-02T16:45:40.644Z,37.51
2018-03-02T16:48:08.488Z,37.90
2018-03-02T16:50:36.192Z,38.19
2018-03-02T16:53:04.058Z,38.54
2018-03-02T16:55:32.452Z,39.34
2018-03-02T16:58:00.509Z,40.18
2018-03-02T17:00:28.482Z,39.75
2018-03-02T17:02:56.384Z,39.69
2018-03-02T17:05:24.415Z,40.11
2018-03-02T17:07:52.366Z,40.67
2018-03-02T17:10:20.250Z,40.18
2018-03-02T17:12:47.914Z,40.02
2018-03-02T17:15:15.880Z,40.39
2018-03-02T17:17:45.082Z,40.86
2018-03-02T17:20:13.055Z,41.13
2018-03-02T17:22:40.923Z,40.82
2018-03-02T17:25:08.785Z,40.97
2018-03-02T17:27:36.646Z,41.21
2018-03-02T17:30:04.411Z,41.39
2018-03-02T17:32:32.463Z,40.96
2018-03-02T17:35:00.146Z,40.62
2018-03-02T17:37:28.027Z,41.23
2018-03-02T17:39:55.756Z,40.54
2018-03-02T17:42:23.644Z,40.40
2018-03-02T17:44:51.610Z,40.53
2018-03-02T17:47:19.886Z,40.41
2018-03-02T17:49:49.706Z,39.99
2018-03-02T17:52:18.479Z,40.47
2018-03-02T17:54:47.172Z,40.60
2018-03-02T17:57:15.141Z,40.85
2018-03-02T17:59:43.008Z,40.99
2018-03-02T18:02:11.365Z,41.12
2018-03-02T18:04:39.251Z,41.53
2018-03-02T18:07:07.118Z,41.91
2018-03-02T18:09:35.191Z,41.84
2018-03-02T18:12:03.159Z,41.95
2018-03-02T18:14:31.025Z,41.98
2018-03-02T18:16:58.955Z,42.33
2018-03-02T18:19:26.760Z,42.17
2018-03-02T18:21:54.957Z,42.22
2018-03-02T18:24:23.688Z,42.70
2018-03-02T18:26:51.791Z,42.87
2018-03-02T18:29:19.688Z,42.95
2018-03-02T18:31:47.626Z,42.92
2018-03-02T18:34:16.336Z,43.32
2018-03-02T18:36:44.313Z,43.19
2018-03-02T18:39:12.148Z,43.23
2018-03-02T18:41:40.218Z,43.60
2018-03-02T18:44:08.085Z,43.33
2018-03-02T18:46:36.053Z,43.37
2018-03-02T18:49:04.027Z,44.30
2018-03-02T18:51:31.865Z,43.75
2018-03-02T18:54:00.472Z,43.72
2018-03-02T18:56:28.340Z,44.19
2018-03-02T18:58:56.119Z,44.26
2018-03-02T19:01:24.072Z,44.32
2018-03-02T19:03:52.044Z,45.05
2018-03-02T19:06:20.113Z,45.26
2018-03-02T19:08:48.348Z,45.12
2018-03-02T19:11:17.380Z,45.67
2018-03-02T19:13:45.355Z,45.74
2018-03-02T19:16:13.177Z,46.11
2018-03-02T19:18:41.697Z,46.37
2018-03-02T19:21:09.973Z,46.78
2018-03-02T19:23:37.942Z,46.83
2018-03-02T19:26:05.893Z,46.64
2018-03-02T19:28:33.986Z,46.67
2018-03-02T19:31:02.550Z,47.03
2018-03-02T19:33:30.433Z,47.97
2018-03-02T19:35:58.503Z,48.15
2018-03-02T19:38:26.644Z,47.96
2018-03-02T19:40:54.544Z,47.99
2018-03-02T19:43:22.717Z,48.17
2018-03-02T19:45:50.686Z,48.22
2018-03-02T19:48:18.657Z,48.36
2018-03-02T19:50:46.682Z,48.44
2018-03-02T19:53:14.574Z,48.97
2018-03-02T19:55:42.664Z,49.06
2018-03-02T19:58:11.248Z,49.65
2018-03-02T20:00:39.217Z,48.91
2018-03-02T20:03:07.184Z,48.70
2018-03-02T20:05:35.215Z,50.14
2018-03-02T20:08:03.056Z,50.33
2018-03-02T20:10:31.768Z,50.25
2018-03-02T20:12:59.675Z,50.21
2018-03-02T20:15:28.451Z,50.18
2018-03-02T20:17:56.331Z,50.14
2018-03-02T20:20:24.258Z,51.54
2018-03-02T20:22:52.191Z,50.91
2018-03-02T20:25:20.032Z,51.04
2018-03-02T20:27:48.419Z,50.80
2018-03-02T20:30:16.349Z,51.51
2018-03-02T20:32:44.263Z,52.03
2018-03-02T20:35:12.189Z,53.29
2018-03-02T20:37:40.291Z,53.52
2018-03-02T20:40:09.176Z,53.40
2018-03-02T20:42:37.031Z,53.83
2018-03-02T20:45:05.544Z,54.27
2018-03-02T20:47:34.413Z,53.69
2018-03-02T20:50:02.283Z,54.32
2018-03-02T20:52:30.321Z,54.55
2018-03-02T20:54:58.322Z,54.24
2018-03-02T20:57:26.189Z,54.19
2018-03-02T20:59:54.749Z,54.40
2018-03-02T21:02:22.637Z,54.57
2018-03-02T21:04:50.606Z,55.42
2018-03-02T21:07:18.575Z,55.70
2018-03-02T21:09:46.862Z,55.16
2018-03-02T21:12:14.729Z,56.15
2018-03-02T21:14:42.583Z,55.82
2018-03-02T21:17:10.554Z,55.69
2018-03-02T21:19:38.420Z,56.01
2018-03-02T21:22:06.388Z,56.26
2018-03-02T21:24:34.767Z,55.51
2018-03-02T21:27:03.043Z,56.10
2018-03-02T21:29:30.914Z,55.86
2018-03-02T21:31:59.594Z,56.25
2018-03-02T21:34:27.801Z,56.01
2018-03-02T21:36:55.650Z,56.30
2018-03-02T21:39:24.014Z,56.30
2018-03-02T21:41:51.982Z,56.69
2018-03-02T21:44:19.849Z,56.58
2018-03-02T21:46:47.587Z,56.02
2018-03-02T21:49:15.403Z,55.96
2018-03-02T21:51:43.156Z,56.81
2018-03-02T21:54:11.058Z,56.42
2018-03-02T21:56:39.029Z,57.07
2018-03-02T21:59:07.053Z,58.50
2018-03-02T22:01:34.915Z,57.80
2018-03-02T22:04:02.783Z,57.56
2018-03-02T22:06:30.558Z,57.16
2018-03-02T22:08:58.346Z,56.90
2018-03-02T22:11:26.576Z,57.64
2018-03-02T22:13:54.247Z,58.19
2018-03-02T22:16:22.122Z,57.62
2018-03-02T22:18:49.797Z,58.23
2018-03-02T22:21:17.372Z,57.54
2018-03-02T22:23:45.297Z,57.78
2018-03-02T22:26:12.971Z,57.59
2018-03-02T22:28:40.506Z,58.05
2018-03-02T22:31:08.135Z,57.85
2018-03-02T22:33:35.901Z,57.29
2018-03-02T22:36:03.714Z,57.06
2018-03-02T22:38:31.379Z,57.22
2018-03-02T22:40:59.245Z,57.34
2018-03-02T22:43:27.124Z,57.11
2018-03-02T22:45:54.771Z,57.43
2018-03-02T22:48:22.534Z,57.16
2018-03-02T22:50:50.166Z,57.44
2018-03-02T22:53:17.812Z,57.48
2018-03-02T22:55:45.520Z,57.51
2018-03-02T22:58:13.386Z,57.25
2018-03-02T23:00:41.686Z,57.58
2018-03-02T23:03:09.410Z,58.15
2018-03-02T23:05:37.014Z,58.28
2018-03-02T23:08:04.808Z,58.50
2018-03-02T23:10:32.517Z,58.23
2018-03-02T23:13:00.474Z,58.60
2018-03-02T23:15:28.307Z,58.85
2018-03-02T23:17:56.707Z,58.79
2018-03-02T23:20:24.306Z,58.75
2018-03-02T23:22:52.686Z,58.11
2018-03-02T23:25:21.510Z,58.69
2018-03-02T23:27:49.414Z,58.57
2018-03-02T23:30:17.188Z,59.04
2018-03-02T23:32:44.962Z,59.44
2018-03-02T23:35:12.499Z,58.57
2018-03-02T23:37:40.455Z,58.92
2018-03-02T23:40:08.144Z,58.76
2018-03-02T23:42:35.671Z,58.73
2018-03-02T23:45:03.463Z,58.76
2018-03-02T23:47:30.998Z,59.27
2018-03-02T23:49:58.561Z,59.34
2018-03-02T23:52:28.806Z,59.19
2018-03-02T23:54:56.390Z,59.36
2018-03-02T23:57:23.982Z,59.13
2018-03-02T23:59:52.235Z,59.24
